createdAt,value
2023-04-28T00:01:13.014Z,4.94
2023-04-28T00:03:39.826Z,4.93
2023-04-28T00:06:06.713Z,4.96
2023-04-28T00:08:33.541Z,4.99
2023-04-28T00:11:00.987Z,4.94
2023-04-28T00:13:27.644Z,4.90
2023-04-28T00:15:54.679Z,4.85
2023-04-28T00:18:21.813Z,4.84
2023-04-28T00:20:48.695Z,4.80
2023-04-28T00:23:16.043Z,4.79
2023-04-28T00:25:42.636Z,4.78
2023-04-28T00:28:09.277Z,4.71
2023-04-28T00:30:36.060Z,4.63
2023-04-28T00:33:02.846Z,4.57
2023-04-28T00:35:29.586Z,4.53
2023-04-28T00:37:56.247Z,4.47
2023-04-28T00:40:22.973Z,4.45
2023-04-28T00:42:49.636Z,4.39
2023-04-28T00:45:16.415Z,4.37
2023-04-28T00:47:43.407Z,4.35
2023-04-28T00:50:10.668Z,4.33
2023-04-28T00:52:38.851Z,4.32
2023-04-28T00:55:06.043Z,4.29
2023-04-28T00:57:32.735Z,4.23
2023-04-28T00:59:59.746Z,4.22
2023-04-28T01:02:27.184Z,4.17
2023-04-28T01:04:54.531Z,4.13
2023-04-28T01:07:21.630Z,4.07
2023-04-28T01:09:48.487Z,4.07
2023-04-28T01:12:15.117Z,4.06
2023-04-28T01:14:42.253Z,4.03
2023-04-28T01:17:09.461Z,3.93
2023-04-28T01:19:36.249Z,3.82
2023-04-28T01:22:02.998Z,3.72
2023-04-28T01:24:29.601Z,3.59
2023-04-28T01:26:56.537Z,3.49
2023-04-28T01:29:23.232Z,3.41
2023-04-28T01:31:49.941Z,3.31
2023-04-28T01:34:16.948Z,3.26
2023-04-28T01:36:43.975Z,3.23
2023-04-28T01:39:10.867Z,3.20
2023-04-28T01:41:37.526Z,3.17
2023-04-28T01:44:05.101Z,3.15
2023-04-28T01:46:32.008Z,3.09
2023-04-28T01:48:58.826Z,3.07
2023-04-28T01:51:25.466Z,3.04
2023-04-28T01:53:52.252Z,3.00
2023-04-28T01:56:18.880Z,2.99
2023-04-28T01:58:45.808Z,2.95
2023-04-28T02:01:12.545Z,2.89
2023-04-28T02:03:39.322Z,2.87
2023-04-28T02:06:06.153Z,2.84
2023-04-28T02:08:32.817Z,2.82
2023-04-28T02:11:01.594Z,2.81
2023-04-28T02:13:28.205Z,2.80
2023-04-28T02:15:54.851Z,2.77
2023-04-28T02:18:21.600Z,2.75
2023-04-28T02:20:48.204Z,2.73
2023-04-28T02:23:14.807Z,2.70
2023-04-28T02:25:41.428Z,2.65
2023-04-28T02:28:08.087Z,2.63
2023-04-28T02:30:34.748Z,2.60
2023-04-28T02:33:01.598Z,2.60
2023-04-28T02:35:28.374Z,2.57
2023-04-28T02:37:55.215Z,2.56
2023-04-28T02:40:21.879Z,2.56
2023-04-28T02:42:48.511Z,2.56
2023-04-28T02:45:15.254Z,2.55
2023-04-28T02:47:41.921Z,2.56
2023-04-28T02:50:09.251Z,2.57
2023-04-28T02:52:35.934Z,2.59
2023-04-28T02:55:03.848Z,2.63
2023-04-28T02:57:30.782Z,2.66
2023-04-28T02:59:57.430Z,2.67
2023-04-28T03:02:24.140Z,2.71
2023-04-28T03:04:50.817Z,2.71
2023-04-28T03:07:17.564Z,2.74
2023-04-28T03:09:46.086Z,2.75
2023-04-28T03:12:12.750Z,2.77
2023-04-28T03:14:39.368Z,2.82
2023-04-28T03:17:06.471Z,2.87
2023-04-28T03:19:33.424Z,2.90
2023-04-28T03:22:00.034Z,2.95
2023-04-28T03:24:26.812Z,3.01
2023-04-28T03:26:53.551Z,3.04
2023-04-28T03:29:20.375Z,3.03
2023-04-28T03:31:47.145Z,3.07
2023-04-28T03:34:14.604Z,3.07
2023-04-28T03:36:41.480Z,3.08
2023-04-28T03:39:09.796Z,3.11
2023-04-28T03:41:36.540Z,3.15
2023-04-28T03:44:03.152Z,3.16
2023-04-28T03:46:29.842Z,3.18
2023-04-28T03:48:56.582Z,3.21
2023-04-28T03:51:23.254Z,3.23
2023-04-28T03:53:49.855Z,3.26
2023-04-28T03:56:16.812Z,3.26
2023-04-28T03:58:43.485Z,3.32
2023-04-28T04:01:10.759Z,3.30
2023-04-28T04:03:37.580Z,3.37
2023-04-28T04:06:04.779Z,3.39
2023-04-28T04:08:32.956Z,3.40
2023-04-28T04:10:59.603Z,3.40
2023-04-28T04:13:26.227Z,3.42
2023-04-28T04:15:53.077Z,3.41
2023-04-28T04:18:19.813Z,3.43
2023-04-28T04:20:46.489Z,3.45
2023-04-28T04:23:13.113Z,3.48
2023-04-28T04:25:39.753Z,3.51
2023-04-28T04:28:06.416Z,3.54
2023-04-28T04:30:33.119Z,3.55
2023-04-28T04:32:59.870Z,3.52
2023-04-28T04:35:26.515Z,3.51
2023-04-28T04:37:53.410Z,3.50
2023-04-28T04:40:20.092Z,3.49
2023-04-28T04:42:46.686Z,3.48
2023-04-28T04:45:13.396Z,3.45
2023-04-28T04:47:40.973Z,3.43
2023-04-28T04:50:08.288Z,3.38
2023-04-28T04:52:34.893Z,3.38
2023-04-28T04:55:01.581Z,3.37
2023-04-28T04:57:28.203Z,3.37
2023-04-28T04:59:54.856Z,3.35
2023-04-28T05:02:21.545Z,3.35
2023-04-28T05:04:48.394Z,3.38
2023-04-28T05:07:15.052Z,3.38
2023-04-28T05:09:41.725Z,3.36
2023-04-28T05:12:08.357Z,3.37
2023-04-28T05:14:35.285Z,3.33
2023-04-28T05:17:02.871Z,3.30
2023-04-28T05:19:29.505Z,3.29
2023-04-28T05:21:56.201Z,3.29
2023-04-28T05:24:25.739Z,3.26
2023-04-28T05:26:54.076Z,3.20
2023-04-28T05:29:21.994Z,3.16
2023-04-28T05:31:48.742Z,3.15
2023-04-28T05:34:15.835Z,3.16
2023-04-28T05:36:43.994Z,3.15
2023-04-28T05:39:11.033Z,3.16
2023-04-28T05:41:37.643Z,3.17
2023-04-28T05:44:04.395Z,3.15
2023-04-28T05:46:31.444Z,3.15
2023-04-28T05:48:58.236Z,3.14
2023-04-28T05:51:24.914Z,3.19
2023-04-28T05:53:51.527Z,3.18
2023-04-28T05:56:18.295Z,3.22
2023-04-28T05:58:45.100Z,3.26
2023-04-28T06:01:12.003Z,3.29
2023-04-28T06:03:40.467Z,3.35
2023-04-28T06:06:10.190Z,3.38
2023-04-28T06:08:37.936Z,3.38
2023-04-28T06:11:04.809Z,3.40
2023-04-28T06:13:31.525Z,3.45
2023-04-28T06:15:58.448Z,3.42
2023-04-28T06:18:25.792Z,3.47
2023-04-28T06:20:52.486Z,3.50
2023-04-28T06:23:19.126Z,3.39
2023-04-28T06:25:45.794Z,3.30
2023-04-28T06:28:13.459Z,3.23
2023-04-28T06:30:40.267Z,3.19
2023-04-28T06:33:07.694Z,3.20
2023-04-28T06:35:39.075Z,3.22
2023-04-28T06:38:06.647Z,3.31
2023-04-28T06:40:33.330Z,3.34
2023-04-28T06:42:59.943Z,3.39
2023-04-28T06:45:26.680Z,3.44
2023-04-28T06:47:55.903Z,3.45
2023-04-28T06:50:23.663Z,3.35
2023-04-28T06:52:50.533Z,3.27
2023-04-28T06:55:17.822Z,3.29
2023-04-28T06:57:44.927Z,3.29
2023-04-28T07:00:12.781Z,3.32
2023-04-28T07:02:39.601Z,3.36
2023-04-28T07:05:06.865Z,3.36
2023-04-28T07:07:33.618Z,3.42
2023-04-28T07:10:01.135Z,3.40
2023-04-28T07:12:28.020Z,3.38
2023-04-28T07:14:55.941Z,3.38
2023-04-28T07:17:22.751Z,3.36
2023-04-28T07:19:50.928Z,3.29
2023-04-28T07:22:17.813Z,3.26
2023-04-28T07:24:44.776Z,3.29
2023-04-28T07:27:11.403Z,3.37
2023-04-28T07:29:38.311Z,3.40
2023-04-28T07:32:14.028Z,3.47
2023-04-28T07:34:40.772Z,3.53
2023-04-28T07:37:07.570Z,3.54
2023-04-28T07:39:35.147Z,3.54
2023-04-28T07:42:03.230Z,3.54
2023-04-28T07:44:31.091Z,3.57
2023-04-28T07:46:58.987Z,3.60
2023-04-28T07:49:26.416Z,3.66
2023-04-28T07:51:55.018Z,3.69
2023-04-28T07:54:21.651Z,3.67
2023-04-28T07:56:48.464Z,3.68
2023-04-28T07:59:15.099Z,3.70
2023-04-28T08:01:43.005Z,3.72
2023-04-28T08:04:09.956Z,3.70
2023-04-28T08:06:36.869Z,3.70
2023-04-28T08:09:05.960Z,3.67
2023-04-28T08:11:33.550Z,3.60
2023-04-28T08:14:04.064Z,3.60
2023-04-28T08:16:31.533Z,3.65
2023-04-28T08:18:59.871Z,3.74
2023-04-28T08:21:27.145Z,3.84
2023-04-28T08:23:53.825Z,3.89
2023-04-28T08:26:20.764Z,3.94
2023-04-28T08:28:47.471Z,3.99
2023-04-28T08:31:14.236Z,4.06
2023-04-28T08:33:44.496Z,4.15
2023-04-28T08:36:15.229Z,4.24
2023-04-28T08:38:42.222Z,4.34
2023-04-28T08:41:08.970Z,4.48
2023-04-28T08:43:36.624Z,4.65
2023-04-28T08:46:07.477Z,4.73
2023-04-28T08:48:42.090Z,4.80
2023-04-28T08:51:09.073Z,4.88
2023-04-28T08:54:06.082Z,4.93
2023-04-28T08:56:31.934Z,4.99
2023-04-28T08:59:03.666Z,5.03
2023-04-28T09:01:33.329Z,5.18
2023-04-28T09:04:14.246Z,5.38
2023-04-28T09:06:41.525Z,5.53
2023-04-28T09:09:25.369Z,5.66
2023-04-28T09:11:52.929Z,5.81
2023-04-28T09:14:19.612Z,5.92
2023-04-28T09:16:46.494Z,5.97
2023-04-28T09:19:13.276Z,6.09
2023-04-28T09:21:55.977Z,6.12
2023-04-28T09:24:39.732Z,6.06
2023-04-28T09:27:10.687Z,6.11
2023-04-28T09:29:52.764Z,6.21
2023-04-28T09:32:25.040Z,6.32
2023-04-28T09:34:56.800Z,6.36
2023-04-28T09:37:25.453Z,6.41
2023-04-28T09:39:54.186Z,6.43
2023-04-28T09:42:40.896Z,6.39
2023-04-28T09:45:12.050Z,6.45
2023-04-28T09:47:43.565Z,6.55
2023-04-28T09:50:15.082Z,6.65
2023-04-28T09:52:45.008Z,6.58
2023-04-28T09:55:12.865Z,6.55
2023-04-28T09:57:40.220Z,6.65
2023-04-28T10:00:09.311Z,6.79
2023-04-28T10:05:11.710Z,6.91
2023-04-28T10:07:39.475Z,7.01
2023-04-28T10:10:07.901Z,7.11
2023-04-28T10:12:35.312Z,7.12
2023-04-28T10:15:02.766Z,7.13
2023-04-28T10:17:29.950Z,7.17
2023-04-28T10:19:57.552Z,7.31
2023-04-28T10:22:51.002Z,7.62
2023-04-28T10:25:36.041Z,7.84
2023-04-28T10:28:07.935Z,7.95
2023-04-28T10:30:36.089Z,8.01
2023-04-28T10:33:09.384Z,8.06
2023-04-28T10:35:37.492Z,8.13
2023-04-28T10:38:10.916Z,8.18
2023-04-28T10:40:39.605Z,8.21
2023-04-28T10:43:07.807Z,8.30
2023-04-28T10:45:50.346Z,8.52
2023-04-28T10:48:17.181Z,8.70
2023-04-28T10:51:04.957Z,8.80
2023-04-28T10:53:48.112Z,8.88
2023-04-28T10:56:23.682Z,8.90
2023-04-28T10:58:54.550Z,8.98
2023-04-28T11:01:21.537Z,9.08
2023-04-28T11:03:52.428Z,9.29
2023-04-28T11:06:29.223Z,9.41
2023-04-28T11:08:58.127Z,9.34
2023-04-28T11:11:34.954Z,9.33
2023-04-28T11:14:20.426Z,9.44
2023-04-28T11:16:50.919Z,9.62
2023-04-28T11:19:32.228Z,9.62
2023-04-28T11:22:01.110Z,9.71
2023-04-28T11:24:29.485Z,9.93
2023-04-28T11:26:57.520Z,10.18
2023-04-28T11:29:33.641Z,10.34
2023-04-28T11:32:01.036Z,10.36
2023-04-28T11:34:28.039Z,10.42
2023-04-28T11:36:55.142Z,10.48
2023-04-28T11:39:29.383Z,10.43
2023-04-28T11:41:57.073Z,10.33
2023-04-28T11:44:28.845Z,10.24
2023-04-28T11:47:00.278Z,10.16
2023-04-28T11:49:32.810Z,10.00
2023-04-28T11:52:07.281Z,9.75
2023-04-28T11:54:34.363Z,9.57
2023-04-28T11:57:04.285Z,9.38
2023-04-28T11:59:34.018Z,9.19
2023-04-28T12:02:03.521Z,9.08
2023-04-28T12:04:36.425Z,9.08
2023-04-28T12:07:13.495Z,9.14
2023-04-28T12:09:42.917Z,9.11
2023-04-28T12:12:12.177Z,9.06
2023-04-28T12:15:01.437Z,9.06
2023-04-28T12:17:33.448Z,9.13
2023-04-28T12:20:02.770Z,9.27
2023-04-28T12:22:30.390Z,9.49
2023-04-28T12:25:10.495Z,9.68
2023-04-28T12:27:41.642Z,9.86
2023-04-28T12:30:20.865Z,9.99
2023-04-28T12:32:48.444Z,10.15
2023-04-28T12:35:16.144Z,10.16
2023-04-28T12:37:43.605Z,10.11
2023-04-28T12:40:11.024Z,10.09
2023-04-28T12:42:37.725Z,10.16
2023-04-28T12:45:05.936Z,10.38
2023-04-28T12:47:32.750Z,10.44
2023-04-28T12:49:59.395Z,10.53
2023-04-28T12:52:26.769Z,10.67
2023-04-28T12:54:53.418Z,10.82
2023-04-28T12:57:20.238Z,10.94
2023-04-28T12:59:52.574Z,11.14
2023-04-28T13:02:19.385Z,11.39
2023-04-28T13:04:46.397Z,11.53
2023-04-28T13:07:14.320Z,11.58
2023-04-28T13:09:43.001Z,11.55
2023-04-28T13:12:11.857Z,11.38
2023-04-28T13:14:38.827Z,11.30
2023-04-28T13:17:05.491Z,11.32
2023-04-28T13:19:32.764Z,11.32
2023-04-28T13:22:00.190Z,11.36
2023-04-28T13:24:26.827Z,11.47
2023-04-28T13:26:53.515Z,11.53
2023-04-28T13:29:20.558Z,11.57
2023-04-28T13:31:47.306Z,11.67
2023-04-28T13:34:17.466Z,11.80
2023-04-28T13:36:44.867Z,11.86
2023-04-28T13:39:11.766Z,11.81
2023-04-28T13:41:38.515Z,11.77
2023-04-28T13:44:05.178Z,11.66
2023-04-28T13:46:31.815Z,11.58
2023-04-28T13:48:58.569Z,11.45
2023-04-28T13:51:25.313Z,11.17
2023-04-28T13:53:52.088Z,10.98
2023-04-28T13:56:18.776Z,10.69
2023-04-28T13:58:45.522Z,10.27
2023-04-28T14:01:12.277Z,9.88
2023-04-28T14:03:40.581Z,9.54
2023-04-28T14:06:08.303Z,9.28
2023-04-28T14:08:35.009Z,9.22
2023-04-28T14:11:01.663Z,9.28
2023-04-28T14:13:29.744Z,9.51
2023-04-28T14:15:59.564Z,9.89
2023-04-28T14:18:27.725Z,10.38
2023-04-28T14:20:55.770Z,10.84
2023-04-28T14:23:23.160Z,11.32
2023-04-28T14:25:50.430Z,11.65
2023-04-28T14:28:17.551Z,11.72
2023-04-28T14:30:44.302Z,11.69
2023-04-28T14:33:11.255Z,11.57
2023-04-28T14:35:38.164Z,11.48
2023-04-28T14:38:04.848Z,11.45
2023-04-28T14:40:31.675Z,11.54
2023-04-28T14:42:58.350Z,11.72
2023-04-28T14:45:25.077Z,11.89
2023-04-28T14:47:51.868Z,12.13
2023-04-28T14:50:18.794Z,12.38
2023-04-28T14:52:45.730Z,12.56
2023-04-28T14:55:13.665Z,12.70
2023-04-28T14:57:40.650Z,12.66
2023-04-28T15:00:08.255Z,12.57
2023-04-28T15:02:36.206Z,12.59
2023-04-28T15:05:03.425Z,12.72
2023-04-28T15:07:31.909Z,12.80
2023-04-28T15:10:01.661Z,12.93
2023-04-28T15:12:30.479Z,13.08
2023-04-28T15:14:57.878Z,13.16
2023-04-28T15:17:24.940Z,13.18
2023-04-28T15:19:52.260Z,13.12
2023-04-28T15:22:19.002Z,13.08
2023-04-28T15:24:45.939Z,12.95
2023-04-28T15:27:12.779Z,12.74
2023-04-28T15:29:40.090Z,12.57
2023-04-28T15:32:07.001Z,12.39
2023-04-28T15:34:34.077Z,12.29
2023-04-28T15:37:01.505Z,12.23
2023-04-28T15:39:28.764Z,12.18
2023-04-28T15:41:56.230Z,12.22
2023-04-28T15:44:23.250Z,12.41
2023-04-28T15:46:52.084Z,12.71
2023-04-28T15:49:18.854Z,13.04
2023-04-28T15:51:45.811Z,13.33
2023-04-28T15:54:12.552Z,13.47
2023-04-28T15:56:39.418Z,13.01
2023-04-28T15:59:06.350Z,12.47
2023-04-28T16:01:33.487Z,12.22
2023-04-28T16:04:00.498Z,12.19
2023-04-28T16:06:27.724Z,12.21
2023-04-28T16:08:54.559Z,12.24
2023-04-28T16:11:21.365Z,12.36
2023-04-28T16:13:48.021Z,12.50
2023-04-28T16:16:14.953Z,12.62
2023-04-28T16:18:41.857Z,12.77
2023-04-28T16:21:08.681Z,12.99
2023-04-28T16:23:35.466Z,13.19
2023-04-28T16:26:02.119Z,13.42
2023-04-28T16:28:28.786Z,13.62
2023-04-28T16:30:55.453Z,13.77
2023-04-28T16:33:22.204Z,13.48
2023-04-28T16:35:56.083Z,13.07
2023-04-28T16:38:22.911Z,12.98
2023-04-28T16:40:50.879Z,12.87
2023-04-28T16:43:18.076Z,12.76
2023-04-28T16:45:44.850Z,12.64
2023-04-28T16:48:11.783Z,12.66
2023-04-28T16:50:41.040Z,12.80
2023-04-28T16:53:08.720Z,12.96
2023-04-28T16:55:38.100Z,13.08
2023-04-28T16:58:04.950Z,13.15
2023-04-28T17:00:31.740Z,13.11
2023-04-28T17:02:58.558Z,12.91
2023-04-28T17:05:25.563Z,12.72
2023-04-28T17:07:52.276Z,12.45
2023-04-28T17:10:19.073Z,11.96
2023-04-28T17:12:45.956Z,11.55
2023-04-28T17:15:19.216Z,11.43
2023-04-28T17:17:49.911Z,11.33
2023-04-28T17:20:18.081Z,11.32
2023-04-28T17:22:44.858Z,11.28
2023-04-28T17:25:12.578Z,11.25
2023-04-28T17:27:39.542Z,11.22
2023-04-28T17:30:10.672Z,11.23
2023-04-28T17:32:37.959Z,11.23
2023-04-28T17:35:05.097Z,11.24
2023-04-28T17:37:33.154Z,11.25
2023-04-28T17:40:00.820Z,11.19
2023-04-28T17:42:33.547Z,11.12
2023-04-28T17:45:00.216Z,11.00
2023-04-28T17:47:26.937Z,10.93
2023-04-28T17:49:54.417Z,10.88
2023-04-28T17:52:21.108Z,10.91
2023-04-28T17:54:47.986Z,11.02
2023-04-28T17:57:14.787Z,11.18
2023-04-28T17:59:42.678Z,11.33
2023-04-28T18:02:10.465Z,11.50
2023-04-28T18:04:37.868Z,11.62
2023-04-28T18:07:05.604Z,11.68
2023-04-28T18:09:32.250Z,11.67
2023-04-28T18:11:59.142Z,11.70
2023-04-28T18:14:25.849Z,11.65
2023-04-28T18:16:52.532Z,11.54
2023-04-28T18:19:19.213Z,11.35
2023-04-28T18:21:45.921Z,11.20
2023-04-28T18:24:12.608Z,11.06
2023-04-28T18:26:39.245Z,10.92
2023-04-28T18:29:06.031Z,10.72
2023-04-28T18:31:34.028Z,10.46
2023-04-28T18:34:00.856Z,10.15
2023-04-28T18:36:27.797Z,9.86
2023-04-28T18:38:54.430Z,9.62
2023-04-28T18:41:21.703Z,9.37
2023-04-28T18:43:48.352Z,9.27
2023-04-28T18:46:15.051Z,9.22
2023-04-28T18:48:42.214Z,9.16
2023-04-28T18:51:08.928Z,9.06
2023-04-28T18:53:36.444Z,8.92
2023-04-28T18:56:03.291Z,8.80
2023-04-28T18:58:30.038Z,8.64
2023-04-28T19:00:56.909Z,8.50
2023-04-28T19:03:24.350Z,8.47
2023-04-28T19:05:51.307Z,8.47
2023-04-28T19:08:17.969Z,8.48
2023-04-28T19:10:44.610Z,8.47
2023-04-28T19:13:11.297Z,8.44
2023-04-28T19:15:37.993Z,8.45
2023-04-28T19:18:04.924Z,8.40
2023-04-28T19:20:31.627Z,8.36
2023-04-28T19:23:01.501Z,8.25
2023-04-28T19:25:30.658Z,8.16
2023-04-28T19:27:57.600Z,8.12
2023-04-28T19:30:24.305Z,8.07
2023-04-28T19:32:51.029Z,8.02
2023-04-28T19:35:17.718Z,7.96
2023-04-28T19:37:44.543Z,7.93
2023-04-28T19:40:11.875Z,7.82
2023-04-28T19:42:38.640Z,7.69
2023-04-28T19:45:05.900Z,7.59
2023-04-28T19:47:36.999Z,7.51
2023-04-28T19:50:05.309Z,7.44
2023-04-28T19:52:32.093Z,7.40
2023-04-28T19:55:00.627Z,7.39
2023-04-28T19:57:27.557Z,7.36
2023-04-28T19:59:54.583Z,7.33
2023-04-28T20:02:22.661Z,7.29
2023-04-28T20:04:49.587Z,7.23
2023-04-28T20:07:16.842Z,7.18
2023-04-28T20:09:44.494Z,7.11
2023-04-28T20:12:11.623Z,7.09
2023-04-28T20:14:38.374Z,7.02
2023-04-28T20:17:05.605Z,6.96
2023-04-28T20:19:32.388Z,6.90
2023-04-28T20:21:59.055Z,6.87
2023-04-28T20:24:25.962Z,6.85
2023-04-28T20:26:54.608Z,6.75
2023-04-28T20:29:21.696Z,6.64
2023-04-28T20:31:48.674Z,6.55
2023-04-28T20:34:15.489Z,6.49
2023-04-28T20:36:42.925Z,6.44
2023-04-28T20:39:11.277Z,6.41
2023-04-28T20:41:40.900Z,6.35
2023-04-28T20:44:08.070Z,6.31
2023-04-28T20:46:35.600Z,6.30
2023-04-28T20:49:03.031Z,6.25
2023-04-28T20:51:30.252Z,6.18
2023-04-28T20:53:57.770Z,6.04
2023-04-28T20:56:24.716Z,5.97
2023-04-28T20:58:51.550Z,5.94
2023-04-28T21:01:18.328Z,5.91
2023-04-28T21:03:45.367Z,5.90
2023-04-28T21:06:12.247Z,5.89
2023-04-28T21:08:40.755Z,5.86
2023-04-28T21:11:15.102Z,5.86
2023-04-28T21:13:43.076Z,5.86
2023-04-28T21:16:20.666Z,5.85
2023-04-28T21:18:47.960Z,5.82
2023-04-28T21:21:15.023Z,5.76
2023-04-28T21:23:43.057Z,5.65
2023-04-28T21:26:10.256Z,5.58
2023-04-28T21:28:37.717Z,5.50
2023-04-28T21:31:04.959Z,5.47
2023-04-28T21:33:32.081Z,5.45
2023-04-28T21:36:03.449Z,5.44
2023-04-28T21:38:30.165Z,5.44
2023-04-28T21:40:56.930Z,5.43
2023-04-28T21:43:24.136Z,5.38
2023-04-28T21:45:52.207Z,5.30
2023-04-28T21:48:18.927Z,5.25
2023-04-28T21:50:45.605Z,5.21
2023-04-28T21:53:12.261Z,5.20
2023-04-28T21:55:39.815Z,5.19
2023-04-28T21:58:06.493Z,5.19
2023-04-28T22:00:39.559Z,5.17
2023-04-28T22:03:06.716Z,5.14
2023-04-28T22:05:34.294Z,5.12
2023-04-28T22:08:01.830Z,5.09
2023-04-28T22:10:28.553Z,5.03
2023-04-28T22:12:55.223Z,4.93
2023-04-28T22:15:22.021Z,4.87
2023-04-28T22:17:48.733Z,4.84
2023-04-28T22:20:15.647Z,4.83
2023-04-28T22:22:42.369Z,4.81
2023-04-28T22:25:09.354Z,4.81
2023-04-28T22:27:36.038Z,4.82
2023-04-28T22:30:02.866Z,4.77
2023-04-28T22:32:29.512Z,4.77
2023-04-28T22:34:56.177Z,4.77
2023-04-28T22:37:22.846Z,4.75
2023-04-28T22:39:50.077Z,4.76
2023-04-28T22:42:16.885Z,4.71
2023-04-28T22:44:43.905Z,4.64
2023-04-28T22:47:10.596Z,4.54
2023-04-28T22:49:37.243Z,4.48
2023-04-28T22:52:04.142Z,4.46
2023-04-28T22:54:31.978Z,4.40
2023-04-28T22:56:59.349Z,4.37
2023-04-28T22:59:26.687Z,4.34
2023-04-28T23:01:54.794Z,4.34
2023-04-28T23:04:22.147Z,4.36
2023-04-28T23:06:49.102Z,4.35
2023-04-28T23:09:16.223Z,4.33
2023-04-28T23:11:43.090Z,4.28
2023-04-28T23:14:10.301Z,4.22
2023-04-28T23:16:37.252Z,4.14
2023-04-28T23:19:03.942Z,4.07
2023-04-28T23:21:31.270Z,4.01
2023-04-28T23:23:57.892Z,3.97
2023-04-28T23:26:24.813Z,3.92
2023-04-28T23:28:51.595Z,3.87
2023-04-28T23:31:18.224Z,3.82
2023-04-28T23:33:44.893Z,3.83
2023-04-28T23:36:12.618Z,3.83
2023-04-28T23:38:39.416Z,3.84
2023-04-28T23:41:06.561Z,3.84
2023-04-28T23:43:33.700Z,3.84
2023-04-28T23:46:00.490Z,3.82
2023-04-28T23:48:27.598Z,3.80
2023-04-28T23:50:54.658Z,3.83
2023-04-28T23:53:21.578Z,3.84
2023-04-28T23:55:48.597Z,3.82
2023-04-28T23:58:15.268Z,3.79
